Time;durP1;ratioP1;P1;durP2;ratioP2;P2;SDS_P1;SDS_P2;PMS_P1;PMS_P2;Temp;Humidity;BMP_temperature;BMP_pressure;BME280_temperature;BME280_humidity;BME280_pressure;Samples;Min_cycle;Max_cycle;Signal;HPM_P1;HPM_P2
2021/06/08 00:04:04;;;;;;;;;;;17.10;99.90;;;16.30;78.65;96010.31;10428604;28;1911;-81
2021/06/08 00:09:06;;;;;;;;;;;17.20;99.90;;;16.45;78.27;96009.19;10384157;28;2106;-79
2021/06/08 00:14:08;;;;;;;;;;;17.20;99.90;;;15.97;80.37;96011.53;10405408;28;2165;-79
2021/06/08 00:19:10;;;;;;;;;;;17.10;99.90;;;15.77;80.97;96015.47;10406086;28;2041;-77
2021/06/08 00:24:12;;;;;;;;;;;16.90;99.90;;;15.72;81.24;96021.81;10377718;28;2005;-78
2021/06/08 00:29:14;;;;;;;;;;;16.80;99.90;;;15.70;81.38;96015.06;10409629;28;2050;-78
2021/06/08 00:34:17;;;;;;;;;;;16.80;99.90;;;15.83;81.03;96011.53;10390319;28;2236;-79
2021/06/08 00:39:19;;;;;;;;;;;16.90;99.90;;;15.89;81.28;96013.84;10398263;28;2120;-78
2021/06/08 00:44:21;;;;;;;;;;;16.80;99.90;;;15.81;81.36;96011.84;10399371;28;2095;-79
2021/06/08 00:49:23;;;;;;;;;;;16.80;99.90;;;16.11;79.11;95998.81;10402762;28;2034;-79
2021/06/08 00:54:25;;;;;;;;;;;16.90;99.90;;;15.86;81.20;96016.38;10390900;28;2125;-79
2021/06/08 00:59:28;;;;;;;;;;;16.90;99.90;;;16.23;79.13;96003.72;10400583;28;2104;-79
2021/06/08 01:04:30;;;;;;;;;;;16.90;99.90;;;16.56;77.53;95996.19;10401458;28;2065;-78
2021/06/08 01:09:32;;;;;;;;;;;17.20;99.90;;;16.48;77.93;95992.31;10377153;28;2190;-79
2021/06/08 01:14:34;;;;;;;;;;;17.30;99.90;;;16.60;77.41;95989.84;10401890;28;2077;-80
2021/06/08 01:19:37;;;;;;;;;;;17.40;99.90;;;16.10;79.20;95979.03;10391736;28;2089;-77
2021/06/08 01:24:40;;;;;;;;;;;17.30;99.90;;;16.36;78.52;95973.84;10371682;28;2151;-79
2021/06/08 01:29:42;;;;;;;;;;;17.30;99.90;;;16.09;79.46;95976.59;10404749;28;2147;-81
2021/06/08 01:34:44;;;;;;;;;;;17.20;99.90;;;16.13;79.41;95972.16;10377111;28;2133;-80
2021/06/08 01:39:47;;;;;;;;;;;17.00;99.90;;;16.14;79.32;95969.16;10391924;28;1921;-81
2021/06/08 01:44:49;;;;;;;;;;;17.00;99.90;;;15.85;80.32;95982.25;10407107;28;2069;-80
2021/06/08 01:49:51;;;;;;;;;;;17.00;99.90;;;15.17;83.82;95982.94;10400003;28;2256;-80
2021/06/08 01:54:53;;;;;;;;;;;16.60;99.90;;;15.34;84.21;95989.41;10406085;28;2263;-81
2021/06/08 01:59:55;;;;;;;;;;;16.40;99.90;;;15.64;82.36;95985.34;10449035;28;1954;-81
2021/06/08 02:04:58;;;;;;;;;;;16.40;99.90;;;16.07;80.67;95984.22;10436793;28;1403;-81
2021/06/08 02:10:00;;;;;;;;;;;16.70;99.90;;;15.94;80.91;95988.56;10419530;28;1199;-78
2021/06/08 02:15:02;;;;;;;;;;;16.80;99.90;;;16.14;80.17;95990.03;10440265;28;2059;-78
2021/06/08 02:20:04;;;;;;;;;;;16.90;99.90;;;15.90;81.33;95990.25;10404096;28;2144;-77
2021/06/08 02:25:06;;;;;;;;;;;16.90;99.90;;;15.74;81.54;95989.78;10390584;28;2075;-78
2021/06/08 02:30:08;;;;;;;;;;;16.80;99.90;;;15.64;82.63;96000.78;10405565;28;2078;-78
2021/06/08 02:35:11;;;;;;;;;;;16.70;99.90;;;15.77;81.66;95991.06;10393736;28;2244;-79
2021/06/08 02:40:13;;;;;;;;;;;16.70;99.90;;;15.77;81.70;95996.50;10404318;28;2258;-79
2021/06/08 02:45:15;;;;;;;;;;;16.70;99.90;;;15.70;81.69;96002.31;10387609;28;2135;-79
2021/06/08 02:50:17;;;;;;;;;;;16.60;99.90;;;15.69;81.95;96003.41;10391517;28;2081;-80
2021/06/08 02:55:19;;;;;;;;;;;16.60;99.90;;;15.67;81.79;96009.13;10371612;28;2256;-79
2021/06/08 03:00:22;;;;;;;;;;;16.70;99.90;;;15.48;83.14;95997.56;10399464;28;2089;-79
2021/06/08 03:05:24;;;;;;;;;;;16.50;99.90;;;15.41;83.49;96011.50;10416299;28;2188;-79
2021/06/08 03:10:26;;;;;;;;;;;16.40;99.90;;;15.45;83.18;96011.69;10411801;28;2101;-77
2021/06/08 03:15:28;;;;;;;;;;;16.40;99.90;;;15.18;85.24;96019.75;10396279;28;2226;-78
2021/06/08 03:20:30;;;;;;;;;;;16.20;99.90;;;15.48;83.11;96019.22;10411588;28;2103;-79
2021/06/08 03:25:33;;;;;;;;;;;16.30;99.90;;;15.25;85.15;96020.16;10408703;28;2184;-79
2021/06/08 03:30:35;;;;;;;;;;;16.20;99.90;;;14.97;86.38;96027.41;10413383;28;2033;-80
2021/06/08 03:35:37;;;;;;;;;;;16.10;99.90;;;14.83;87.11;96032.78;10391161;28;2148;-79
2021/06/08 03:40:39;;;;;;;;;;;15.90;99.90;;;14.72;88.21;96036.72;10390628;28;2086;-79
2021/06/08 03:45:42;;;;;;;;;;;15.70;99.90;;;15.03;87.19;96042.47;10403483;28;2361;-79
2021/06/08 03:50:44;;;;;;;;;;;15.80;99.90;;;15.14;86.29;96044.72;10408678;28;2134;-77
2021/06/08 03:55:48;;;;;;;;;;;16.00;99.90;;;15.61;84.28;96039.31;10412078;28;2057;-78
2021/06/08 04:00:50;;;;;;;;;;;16.20;99.90;;;15.91;82.42;96037.97;10418455;28;2128;-80
2021/06/08 04:05:52;;;;;;;;;;;17.60;99.90;;;16.02;81.58;96046.69;10400653;28;2133;-79
2021/06/08 04:10:54;;;;;;;;;;;16.70;99.90;;;16.13;80.93;96043.47;10391322;28;2132;-77
2021/06/08 04:16:03;;;;;;;;;;;16.80;99.90;;;15.95;82.36;96049.81;10381629;28;2143;-81
2021/06/08 04:21:25;;;;;;;;;;;16.80;99.90;;;16.06;82.13;96048.50;10403475;28;2072;-81
2021/06/08 04:26:48;;;;;;;;;;;16.80;99.90;;;16.03;82.79;96046.41;10398401;28;2065;-80
2021/06/08 04:31:50;;;;;;;;;;;16.90;99.90;;;16.04;81.97;96050.72;10415459;28;2120;-80
2021/06/08 04:36:52;;;;;;;;;;;16.90;99.90;;;16.31;80.80;96059.94;10407773;28;2028;-80
2021/06/08 04:41:55;;;;;;;;;;;17.00;99.90;;;16.33;81.19;96063.97;10404331;28;2010;-79
2021/06/08 04:46:57;;;;;;;;;;;17.10;99.90;;;16.70;79.62;96062.94;10402787;28;1760;-80
2021/06/08 04:51:59;;;;;;;;;;;17.30;99.90;;;17.12;77.08;96069.03;10409514;28;2111;-78
2021/06/08 04:57:01;;;;;;;;;;;17.50;99.90;;;17.27;75.74;96059.72;10377186;28;2000;-82
2021/06/08 05:02:03;;;;;;;;;;;17.80;99.90;;;17.29;76.09;96063.72;10418947;28;2085;-81
2021/06/08 05:07:05;;;;;;;;;;;18.00;99.90;;;17.33;76.28;96060.41;10407878;28;2104;-81
2021/06/08 05:12:08;;;;;;;;;;;18.00;99.90;;;17.81;74.20;96064.09;10395137;28;2085;-81
2021/06/08 05:17:10;;;;;;;;;;;18.20;99.90;;;18.50;71.32;96070.88;10391985;28;1937;-82
2021/06/08 05:22:12;;;;;;;;;;;18.80;99.90;;;18.89;69.40;96065.38;10409056;28;1920;-80
2021/06/08 05:27:15;;;;;;;;;;;19.20;99.90;;;19.20;68.18;96075.28;10404760;28;2069;-80
2021/06/08 05:32:17;;;;;;;;;;;19.70;99.90;;;19.47;67.12;96074.19;10388256;28;2158;-82
2021/06/08 05:37:19;;;;;;;;;;;19.90;99.90;;;19.65;65.89;96080.41;10434835;28;1910;-81
2021/06/08 05:42:23;;;;;;;;;;;20.00;99.90;;;19.85;64.68;96074.28;10416734;28;2144;-81
2021/06/08 05:47:25;;;;;;;;;;;20.20;99.90;;;19.88;64.99;96076.34;10400700;28;1998;-81
2021/06/08 05:52:28;;;;;;;;;;;20.50;99.90;;;20.44;63.26;96085.28;10392953;28;2021;-81
2021/06/08 05:57:31;;;;;;;;;;;20.70;99.90;;;19.88;64.71;96090.00;10409820;28;2071;-81
2021/06/08 06:02:33;;;;;;;;;;;20.80;99.90;;;20.11;64.25;96087.84;10409102;28;1999;-79
2021/06/08 06:07:36;;;;;;;;;;;20.90;99.90;;;20.19;64.01;96088.94;10387638;28;1844;-79
2021/06/08 06:12:38;;;;;;;;;;;20.90;99.90;;;20.38;63.43;96086.59;10415765;28;1947;-79
2021/06/08 06:17:41;;;;;;;;;;;21.00;99.90;;;20.81;61.76;96077.41;10398028;28;1741;-80
2021/06/08 06:22:43;;;;;;;;;;;21.30;99.90;;;20.76;62.94;96077.59;10410089;28;2050;-80
2021/06/08 06:27:45;;;;;;;;;;;21.40;99.90;;;20.79;62.48;96085.09;10403807;28;2033;-81
2021/06/08 06:32:49;;;;;;;;;;;21.30;99.90;;;20.43;64.15;96083.69;10408861;28;1066;-82
2021/06/08 06:37:53;;;;;;;;;;;21.10;99.90;;;20.29;64.59;96091.28;10383313;28;2271;-81
2021/06/08 06:42:59;;;;;;;;;;;21.00;99.90;;;19.73;67.23;96095.97;10387050;28;1965;-82
2021/06/08 06:48:04;;;;;;;;;;;20.60;99.90;;;19.34;68.58;96097.75;10372182;28;1641;-83
2021/06/08 06:53:06;;;;;;;;;;;20.30;99.90;;;20.18;65.80;96100.97;10413362;28;2116;-82
2021/06/08 06:58:09;;;;;;;;;;;20.40;99.90;;;20.79;63.43;96101.50;10396234;28;2342;-82
2021/06/08 07:03:13;;;;;;;;;;;21.00;99.90;;;20.60;63.67;96103.84;10393217;28;2143;-84
2021/06/08 07:08:15;;;;;;;;;;;21.20;99.90;;;20.79;63.20;96104.22;10396457;28;2166;-83
2021/06/08 07:13:18;;;;;;;;;;;21.40;99.90;;;20.15;64.64;96105.16;10389529;28;2010;-82
2021/06/08 07:18:20;;;;;;;;;;;21.50;99.90;;;20.60;64.63;96103.84;10393592;28;1671;-81
2021/06/08 07:23:22;;;;;;;;;;;21.10;99.90;;;20.59;65.14;96107.72;10392550;28;1945;-79
2021/06/08 07:28:24;;;;;;;;;;;21.30;99.90;;;20.78;63.66;96103.44;10392775;28;2129;-84
2021/06/08 07:33:27;;;;;;;;;;;21.40;99.90;;;20.58;64.19;96095.19;10387551;28;1675;-81
2021/06/08 07:38:29;;;;;;;;;;;21.40;99.90;;;20.37;66.70;96095.13;10387127;28;2008;-81
2021/06/08 07:43:31;;;;;;;;;;;21.20;99.90;;;20.78;64.18;96097.97;10413149;28;1914;-80
2021/06/08 07:48:34;;;;;;;;;;;21.50;99.90;;;21.29;62.92;96098.75;10414569;28;2053;-82
2021/06/08 07:53:36;;;;;;;;;;;21.80;99.90;;;21.56;62.15;96096.59;10404905;28;2157;-81
2021/06/08 07:58:38;;;;;;;;;;;22.10;99.90;;;21.40;63.14;96087.41;10386280;28;2058;-84
2021/06/08 08:03:40;;;;;;;;;;;22.20;99.90;;;21.88;60.84;96092.25;10385968;28;2116;-82
2021/06/08 08:08:43;;;;;;;;;;;22.40;99.90;;;22.56;58.57;96105.50;10391486;28;2092;-83
2021/06/08 08:13:46;;;;;;;;;;;22.80;99.90;;;22.39;58.29;96101.84;10392552;28;2172;-82
2021/06/08 08:18:50;;;;;;;;;;;22.80;99.90;;;22.27;59.28;96101.03;10410095;28;2094;-82
2021/06/08 08:23:52;;;;;;;;;;;22.90;99.90;;;22.70;58.37;96100.47;10399985;28;2189;-81
2021/06/08 08:28:58;;;;;;;;;;;22.90;99.90;;;22.91;57.18;96097.63;10409490;28;2153;-81
2021/06/08 08:34:00;;;;;;;;;;;23.40;99.90;;;22.94;58.36;96094.19;10408369;28;2078;-80
2021/06/08 08:39:02;;;;;;;;;;;23.50;99.90;;;23.75;54.92;96094.22;10416381;28;2172;-83
2021/06/08 08:44:06;;;;;;;;;;;24.00;99.90;;;24.62;52.26;96090.56;10398962;28;2086;-83
2021/06/08 08:49:08;;;;;;;;;;;24.70;99.90;;;24.89;50.94;96092.41;10391614;28;1448;-82
2021/06/08 08:54:10;;;;;;;;;;;25.30;99.90;;;25.23;50.37;96090.81;10400915;28;2051;-81
2021/06/08 08:59:14;;;;;;;;;;;25.80;99.90;;;24.64;51.66;96086.31;10389959;28;2056;-82
2021/06/08 09:04:18;;;;;;;;;;;25.80;99.90;;;24.22;51.96;96095.06;10405590;28;1973;-83
2021/06/08 09:09:20;;;;;;;;;;;25.20;99.90;;;25.08;50.52;96094.44;10399248;28;2071;-82
2021/06/08 09:14:23;;;;;;;;;;;25.20;99.90;;;24.62;51.90;96085.06;10382971;28;2023;-82
2021/06/08 09:19:27;;;;;;;;;;;25.50;99.90;;;24.98;51.15;96089.44;10400966;28;1894;-85
2021/06/08 09:24:29;;;;;;;;;;;25.50;99.90;;;24.32;51.65;96081.97;10432614;28;2241;-83
2021/06/08 09:29:32;;;;;;;;;;;25.30;99.90;;;24.24;51.63;96090.03;10402717;28;2144;-82
2021/06/08 09:34:34;;;;;;;;;;;25.00;99.90;;;24.88;49.62;96090.00;10382855;28;1276;-82
2021/06/08 09:39:36;;;;;;;;;;;25.40;99.90;;;25.42;48.83;96081.78;10390185;28;2065;-83
2021/06/08 09:44:39;;;;;;;;;;;25.80;99.90;;;24.89;49.72;96086.09;10395517;28;2278;-83
2021/06/08 09:49:41;;;;;;;;;;;26.00;99.90;;;24.75;50.63;96076.38;10401826;28;1475;-85
2021/06/08 09:54:43;;;;;;;;;;;25.50;99.90;;;24.65;50.71;96074.16;10420055;28;2032;-86
2021/06/08 09:59:46;;;;;;;;;;;25.50;99.90;;;25.27;49.42;96079.91;10406097;28;2022;-83
2021/06/08 10:04:48;;;;;;;;;;;25.90;99.90;;;25.48;48.24;96079.53;10455300;28;1931;-85
2021/06/08 10:09:50;;;;;;;;;;;26.10;99.90;;;26.02;47.14;96073.13;10421711;28;1193;-82
2021/06/08 10:14:53;;;;;;;;;;;26.30;99.90;;;26.13;45.96;96076.88;10407372;28;2196;-86
2021/06/08 10:19:56;;;;;;;;;;;26.90;99.90;;;27.09;43.51;96074.91;10372848;28;1919;-83
2021/06/08 10:24:58;;;;;;;;;;;27.00;99.90;;;26.18;44.51;96071.06;10400908;28;1652;-84
2021/06/08 10:30:01;;;;;;;;;;;27.10;99.90;;;26.26;44.66;96074.72;10394487;28;1317;-85
2021/06/08 10:35:03;;;;;;;;;;;27.00;99.90;;;25.90;47.30;96076.06;10398556;28;2136;-84
2021/06/08 10:40:05;;;;;;;;;;;26.80;99.90;;;25.99;45.62;96071.91;10414024;28;1946;-83
2021/06/08 10:45:08;;;;;;;;;;;26.60;99.90;;;25.27;46.75;96072.44;10406929;28;2015;-83
2021/06/08 10:50:10;;;;;;;;;;;26.60;99.90;;;26.37;42.78;96062.72;10391271;28;2428;-83
2021/06/08 10:55:12;;;;;;;;;;;26.70;99.90;;;26.90;41.55;96057.25;10414979;28;2148;-84
2021/06/08 11:00:15;;;;;;;;;;;27.70;99.90;;;26.78;42.07;96057.47;10408424;28;2068;-84
2021/06/08 11:05:18;;;;;;;;;;;28.20;99.90;;;26.52;42.84;96052.75;10404437;28;2024;-84
2021/06/08 11:10:21;;;;;;;;;;;28.20;98.90;;;26.48;38.48;96059.38;10403362;28;1884;-83
2021/06/08 11:15:23;;;;;;;;;;;28.10;92.50;;;26.23;40.41;96056.97;10422633;28;2029;-84
2021/06/08 11:20:27;;;;;;;;;;;27.70;92.40;;;26.39;38.90;96049.38;10422257;28;1896;-83
2021/06/08 11:25:29;;;;;;;;;;;27.50;91.20;;;27.20;37.55;96051.00;10408273;28;1952;-84
2021/06/08 11:30:32;;;;;;;;;;;28.00;90.20;;;27.17;37.52;96040.72;10409331;28;2211;-84
2021/06/08 11:35:35;;;;;;;;;;;28.40;88.70;;;25.26;40.29;96043.34;10398418;28;2077;-84
2021/06/08 11:40:38;;;;;;;;;;;27.30;87.60;;;25.33;38.61;96035.22;10386825;28;1994;-84
2021/06/08 11:45:40;;;;;;;;;;;26.70;86.00;;;26.33;38.48;96026.03;10396490;28;2096;-84
2021/06/08 11:50:44;;;;;;;;;;;27.00;88.00;;;26.88;36.95;96022.94;10399785;28;2109;-84
2021/06/08 11:55:54;;;;;;;;;;;27.50;86.20;;;26.43;39.05;96012.84;10387855;28;2072;-81
2021/06/08 12:00:56;;;;;;;;;;;27.20;87.40;;;25.67;38.23;96010.72;10418455;28;1926;-82
2021/06/08 12:05:58;;;;;;;;;;;27.00;85.40;;;26.45;37.68;96004.97;10408611;28;2100;-84
2021/06/08 12:11:00;;;;;;;;;;;26.90;85.40;;;26.13;39.22;96003.28;10414701;28;1925;-84
2021/06/08 12:16:03;;;;;;;;;;;27.00;86.80;;;26.63;37.85;96001.31;10428024;28;1845;-83
2021/06/08 12:21:05;;;;;;;;;;;27.20;85.80;;;26.40;38.30;95989.56;10434375;28;2171;-82
2021/06/08 12:26:07;;;;;;;;;;;27.20;85.20;;;25.64;41.23;95989.44;10415551;28;1997;-84
2021/06/08 12:31:09;;;;;;;;;;;27.10;86.80;;;24.98;42.47;95995.94;10409408;28;2087;-82
2021/06/08 12:36:12;;;;;;;;;;;26.30;87.40;;;25.67;41.62;95983.19;10430841;28;1925;-84
2021/06/08 12:41:14;;;;;;;;;;;26.60;88.20;;;26.03;41.05;95981.88;10415675;28;1992;-85
2021/06/08 12:46:16;;;;;;;;;;;26.80;87.60;;;25.95;39.10;95976.59;10409819;28;2136;-85
2021/06/08 12:51:18;;;;;;;;;;;26.80;85.40;;;25.98;39.20;95968.41;10428436;28;1838;-82
2021/06/08 12:56:21;;;;;;;;;;;26.80;84.80;;;25.88;39.87;95966.25;10430804;28;2096;-83
2021/06/08 13:01:23;;;;;;;;;;;26.60;85.00;;;25.41;40.29;95963.81;10420103;28;2105;-81
2021/06/08 13:06:26;;;;;;;;;;;26.50;84.10;;;25.68;39.30;95961.94;10442784;28;2127;-81
2021/06/08 13:11:28;;;;;;;;;;;26.80;83.40;;;26.19;37.32;95950.63;10433220;28;1985;-82
2021/06/08 13:16:30;;;;;;;;;;;27.00;82.60;;;26.22;37.46;95941.63;10438591;28;1987;-81
2021/06/08 13:21:32;;;;;;;;;;;27.10;81.40;;;25.80;36.90;95939.78;10416559;28;1896;-81
2021/06/08 13:26:35;;;;;;;;;;;27.00;79.80;;;26.45;36.70;95936.09;10432889;28;1916;-81
2021/06/08 13:31:38;;;;;;;;;;;26.90;79.60;;;26.04;36.73;95924.81;10432199;28;2041;-83
2021/06/08 13:36:40;;;;;;;;;;;27.30;78.20;;;26.72;36.17;95915.59;10422996;28;1590;-83
2021/06/08 13:41:42;;;;;;;;;;;27.40;78.60;;;27.10;34.08;95903.47;10408577;28;1985;-80
2021/06/08 13:46:44;;;;;;;;;;;27.90;75.90;;;27.09;32.91;95896.34;10418770;28;2002;-84
2021/06/08 13:51:47;;;;;;;;;;;27.90;74.00;;;26.94;32.92;95887.09;10402098;28;2042;-82
2021/06/08 13:57:00;;;;;;;;;;;27.80;72.60;;;26.99;32.13;95888.72;10433159;28;1822;-81
2021/06/08 14:02:02;;;;;;;;;;;27.90;71.60;;;27.30;29.76;95890.28;10402512;28;2034;-81
2021/06/08 14:07:24;;;;;;;;;;;28.20;68.50;;;27.31;30.48;95886.34;10426991;28;2026;-84
2021/06/08 14:12:26;;;;;;;;;;;28.10;68.80;;;26.76;30.76;95883.31;10416945;28;2218;-82
2021/06/08 14:17:28;;;;;;;;;;;28.00;67.90;;;26.86;29.94;95882.66;10457960;23;1944;-82
2021/06/08 14:22:31;;;;;;;;;;;27.80;66.30;;;27.27;28.89;95885.50;10389359;28;1958;-83
2021/06/08 14:27:36;;;;;;;;;;;28.00;65.70;;;26.58;28.99;95876.78;10377022;28;2390;-83
2021/06/08 14:32:38;;;;;;;;;;;27.70;63.40;;;26.75;28.38;95890.03;10402545;28;2096;-82
2021/06/08 14:37:41;;;;;;;;;;;28.00;63.00;;;27.24;26.96;95869.72;10371002;28;1956;-82
2021/06/08 14:42:43;;;;;;;;;;;27.80;61.50;;;26.71;27.56;95877.34;10371745;28;2009;-82
2021/06/08 14:47:46;;;;;;;;;;;27.90;60.30;;;26.00;29.31;95879.91;10376226;28;2018;-84
2021/06/08 14:52:48;;;;;;;;;;;27.60;61.40;;;26.84;29.06;95885.00;10363730;28;1841;-82
2021/06/08 14:57:51;;;;;;;;;;;27.60;62.70;;;27.20;28.61;95866.91;10372723;28;2024;-85
2021/06/08 15:02:53;;;;;;;;;;;28.00;63.10;;;27.38;27.83;95869.84;10370297;28;2044;-84
2021/06/08 15:07:56;;;;;;;;;;;28.20;61.50;;;27.33;28.90;95869.41;10374792;28;1893;-81
2021/06/08 15:12:58;;;;;;;;;;;28.50;61.90;;;27.36;29.58;95871.41;10383164;28;1920;-80
2021/06/08 15:18:00;;;;;;;;;;;28.50;62.50;;;26.15;30.18;95862.44;10385599;28;2223;-82
2021/06/08 15:23:03;;;;;;;;;;;27.70;61.10;;;25.96;32.49;95862.50;10392617;28;2099;-82
2021/06/08 15:28:05;;;;;;;;;;;27.10;64.70;;;26.10;32.83;95873.75;10383171;28;2085;-83
2021/06/08 15:33:07;;;;;;;;;;;27.10;65.60;;;25.69;34.37;95867.97;10384621;28;2403;-84
2021/06/08 15:38:09;;;;;;;;;;;26.80;67.00;;;25.68;34.36;95880.16;10385776;28;2311;-79
2021/06/08 15:43:11;;;;;;;;;;;26.90;66.80;;;25.69;34.31;95869.94;10385654;28;2123;-82
2021/06/08 15:48:14;;;;;;;;;;;26.70;67.20;;;25.72;33.15;95870.00;10402302;28;2306;-80
2021/06/08 15:53:16;;;;;;;;;;;26.70;65.80;;;26.39;32.27;95875.72;10374747;28;2369;-81
2021/06/08 15:58:19;;;;;;;;;;;26.90;65.90;;;26.05;32.92;95882.34;10373431;28;2314;-79
2021/06/08 16:03:22;;;;;;;;;;;27.00;66.00;;;26.55;32.53;95877.56;10380627;28;2632;-81
2021/06/08 16:08:24;;;;;;;;;;;27.10;66.40;;;26.26;33.01;95874.38;10385992;28;1643;-79
2021/06/08 16:13:26;;;;;;;;;;;27.20;66.20;;;25.74;33.57;95873.19;10381281;28;2001;-78
2021/06/08 16:18:29;;;;;;;;;;;26.90;65.90;;;25.41;34.75;95875.75;10374905;28;1673;-79
2021/06/08 16:23:32;;;;;;;;;;;26.50;67.30;;;24.90;35.98;95884.22;10383840;28;1960;-78
2021/06/08 16:28:36;;;;;;;;;;;26.10;68.30;;;24.81;36.35;95881.69;10371139;28;1865;-79
2021/06/08 16:33:38;;;;;;;;;;;25.90;68.80;;;24.40;37.68;95889.47;10374463;28;2121;-78
2021/06/08 16:38:40;;;;;;;;;;;25.60;70.30;;;24.03;38.71;95904.69;10392003;28;1532;-78
2021/06/08 16:43:42;;;;;;;;;;;25.20;71.70;;;23.96;39.59;95891.59;10410696;28;2208;-79
2021/06/08 16:48:45;;;;;;;;;;;25.00;73.20;;;23.71;40.15;95886.31;10378850;28;2160;-78
2021/06/08 16:53:47;;;;;;;;;;;24.80;73.50;;;23.82;40.18;95886.56;10367738;28;2053;-79
2021/06/08 16:58:50;;;;;;;;;;;24.70;74.50;;;23.57;40.28;95888.69;10370681;28;2180;-80
2021/06/08 17:03:52;;;;;;;;;;;24.60;74.30;;;23.39;39.95;95907.44;10377758;28;2106;-79
2021/06/08 17:08:55;;;;;;;;;;;24.40;73.80;;;23.37;41.27;95904.25;10378667;28;1272;-79
2021/06/08 17:13:57;;;;;;;;;;;24.30;75.30;;;23.49;40.96;95911.63;10368001;28;1438;-79
2021/06/08 17:19:01;;;;;;;;;;;24.30;75.50;;;23.42;41.42;95917.72;10377354;28;1677;-78
2021/06/08 17:24:04;;;;;;;;;;;24.40;75.60;;;22.97;45.75;95922.72;10370232;28;2378;-77
2021/06/08 17:29:06;;;;;;;;;;;24.10;79.90;;;22.58;48.27;95934.13;10370885;28;1571;-80
2021/06/08 17:34:08;;;;;;;;;;;23.80;82.90;;;22.27;49.53;95950.44;10368152;28;1521;-79
2021/06/08 17:39:11;;;;;;;;;;;23.40;84.50;;;22.06;50.27;95942.31;10380300;28;1627;-78
2021/06/08 17:44:13;;;;;;;;;;;23.10;85.80;;;21.64;51.56;95949.94;10367518;28;1981;-78
2021/06/08 17:49:16;;;;;;;;;;;22.80;87.10;;;21.58;52.17;95938.41;10370466;28;2036;-80
2021/06/08 17:54:18;;;;;;;;;;;22.60;88.40;;;21.27;53.45;95941.63;10377934;28;1753;-79
2021/06/08 17:59:21;;;;;;;;;;;22.40;89.50;;;21.03;53.78;95953.28;10377705;28;1196;-78
2021/06/08 18:04:23;;;;;;;;;;;22.10;90.70;;;20.90;54.90;95949.69;10373514;28;1914;-80
2021/06/08 18:09:26;;;;;;;;;;;21.90;91.90;;;20.73;56.08;95960.75;10378016;28;1599;-79
2021/06/08 18:14:28;;;;;;;;;;;21.80;93.20;;;20.60;56.84;95961.84;10390668;28;1690;-77
2021/06/08 18:19:34;;;;;;;;;;;21.60;94.40;;;20.28;54.79;95958.66;10393177;28;1455;-78
2021/06/08 18:24:37;;;;;;;;;;;21.40;92.60;;;19.92;56.55;95965.44;10398125;28;1958;-78
2021/06/08 18:29:39;;;;;;;;;;;21.10;94.20;;;19.69;57.35;95972.28;10379737;28;2644;-80
2021/06/08 18:34:43;;;;;;;;;;;20.80;95.10;;;19.47;58.55;95969.75;10377198;28;1956;-81
2021/06/08 18:39:46;;;;;;;;;;;20.60;96.50;;;19.21;60.15;95992.41;10368878;28;2053;-81
2021/06/08 18:45:00;;;;;;;;;;;20.40;98.30;;;19.07;61.39;95981.69;10373143;28;2115;-81
2021/06/08 18:50:03;;;;;;;;;;;20.10;99.80;;;18.89;62.12;95972.78;10367518;28;1917;-79
2021/06/08 18:55:05;;;;;;;;;;;20.00;99.90;;;18.76;62.91;95973.72;10401363;28;2092;-84
2021/06/08 19:00:07;;;;;;;;;;;19.90;99.90;;;18.55;63.68;95983.63;10396152;28;2384;-81
2021/06/08 19:05:09;;;;;;;;;;;19.70;99.90;;;18.37;64.29;95991.75;10383693;28;2046;-79
2021/06/08 19:10:12;;;;;;;;;;;19.50;99.90;;;18.21;65.21;96000.69;10391196;28;2121;-81
2021/06/08 19:15:15;;;;;;;;;;;19.40;99.90;;;18.08;65.92;96007.88;10378846;28;2140;-81
2021/06/08 19:20:17;;;;;;;;;;;19.20;99.90;;;17.92;66.64;96004.75;10382108;28;1308;-81
2021/06/08 19:25:19;;;;;;;;;;;19.10;99.90;;;17.83;67.33;96006.66;10392825;28;1958;-79
2021/06/08 19:30:22;;;;;;;;;;;19.00;99.90;;;17.72;67.48;96017.00;10410559;28;2082;-82
2021/06/08 19:35:25;;;;;;;;;;;18.90;99.90;;;17.68;67.92;96020.63;10390511;28;1448;-81
2021/06/08 19:40:27;;;;;;;;;;;18.80;99.90;;;17.56;68.90;96029.38;10391022;28;2101;-80
2021/06/08 19:45:31;;;;;;;;;;;18.70;99.90;;;17.52;69.64;96033.81;10379601;28;2203;-82
2021/06/08 19:50:34;;;;;;;;;;;18.60;99.90;;;17.48;69.94;96038.25;10372150;28;1264;-82
2021/06/08 19:55:36;;;;;;;;;;;18.50;99.90;;;17.39;70.54;96043.66;10378764;28;2184;-83
2021/06/08 20:00:38;;;;;;;;;;;18.50;99.90;;;17.37;71.03;96037.75;10397064;28;2033;-81
2021/06/08 20:05:41;;;;;;;;;;;18.40;99.90;;;17.32;71.21;96050.66;10380147;28;2244;-79
2021/06/08 20:10:43;;;;;;;;;;;18.40;99.90;;;17.24;71.85;96047.56;10383900;28;1629;-81
2021/06/08 20:15:45;;;;;;;;;;;18.40;99.90;;;17.18;72.37;96056.94;10372128;28;1998;-82
2021/06/08 20:20:48;;;;;;;;;;;18.30;99.90;;;17.17;72.44;96052.59;10402090;28;2053;-80
2021/06/08 20:25:51;;;;;;;;;;;18.30;99.90;;;17.12;72.91;96055.47;10365380;28;1961;-81
2021/06/08 20:30:55;;;;;;;;;;;18.20;99.90;;;17.01;73.68;96067.66;10370212;28;2143;-83
2021/06/08 20:35:57;;;;;;;;;;;18.20;99.90;;;17.01;74.38;96081.25;10376480;28;2029;-81
2021/06/08 20:41:00;;;;;;;;;;;18.10;99.90;;;16.92;74.57;96069.50;10372314;28;2056;-83
2021/06/08 20:46:07;;;;;;;;;;;18.10;99.90;;;16.91;75.43;96079.56;10373407;28;1918;-84
2021/06/08 20:51:10;;;;;;;;;;;18.00;99.90;;;16.89;75.26;96079.06;10378360;28;1399;-81
2021/06/08 20:56:24;;;;;;;;;;;18.00;99.90;;;16.74;76.02;96077.50;10386609;28;2074;-80
2021/06/08 21:01:26;;;;;;;;;;;17.90;99.90;;;16.67;76.46;96089.88;10406057;28;1894;-80
2021/06/08 21:06:29;;;;;;;;;;;17.90;99.90;;;16.55;76.83;96086.88;10390263;28;1672;-81
2021/06/08 21:11:31;;;;;;;;;;;17.80;99.90;;;16.51;77.63;96092.09;10370300;28;1390;-81
2021/06/08 21:16:37;;;;;;;;;;;17.70;99.90;;;16.44;78.25;96097.91;10375052;28;1572;-81
2021/06/08 21:21:53;;;;;;;;;;;17.60;99.90;;;16.33;79.06;96106.56;10374177;28;2072;-82
2021/06/08 21:26:55;;;;;;;;;;;17.50;99.90;;;16.26;79.62;96098.03;10383496;28;1799;-82
2021/06/08 21:31:57;;;;;;;;;;;17.40;99.90;;;16.15;79.88;96090.06;10371197;28;2247;-80
2021/06/08 21:37:00;;;;;;;;;;;17.40;99.90;;;16.12;80.53;96093.41;10369285;28;2143;-80
2021/06/08 21:42:06;;;;;;;;;;;17.30;99.90;;;16.00;80.86;96098.50;10375369;28;2133;-81
2021/06/08 21:47:09;;;;;;;;;;;17.20;99.90;;;15.99;81.31;96091.50;10377289;28;2117;-79
2021/06/08 21:52:23;;;;;;;;;;;17.10;99.90;;;15.92;82.42;96093.81;10360382;28;2152;-80
2021/06/08 21:57:28;;;;;;;;;;;17.10;99.90;;;15.94;82.46;96100.50;10364880;28;2075;-81
2021/06/08 22:02:32;;;;;;;;;;;17.10;99.90;;;15.94;82.59;96091.59;10382041;28;1914;-79
2021/06/08 22:07:45;;;;;;;;;;;17.00;99.90;;;15.86;83.25;96087.66;10378759;28;2192;-81
2021/06/08 22:12:53;;;;;;;;;;;17.00;99.90;;;15.79;83.33;96083.75;10389925;28;2075;-82
2021/06/08 22:18:05;;;;;;;;;;;16.90;99.90;;;15.73;83.86;96084.94;10398593;28;2158;-82
2021/06/08 22:23:07;;;;;;;;;;;16.90;99.90;;;15.70;84.32;96088.22;10368145;28;2262;-80
2021/06/08 22:28:09;;;;;;;;;;;16.80;99.90;;;15.68;84.87;96091.25;10364104;28;2171;-81
2021/06/08 22:33:12;;;;;;;;;;;16.80;99.90;;;15.61;84.16;96091.59;10382872;28;1851;-80
2021/06/08 22:38:14;;;;;;;;;;;16.80;99.90;;;15.60;84.89;96084.56;10375354;28;1566;-81
2021/06/08 22:43:16;;;;;;;;;;;16.70;99.90;;;15.59;85.12;96087.59;10378507;28;2048;-82
2021/06/08 22:48:19;;;;;;;;;;;16.70;99.90;;;15.46;85.20;96097.28;10383440;28;1806;-84
2021/06/08 22:53:21;;;;;;;;;;;16.70;99.90;;;15.36;85.67;96092.84;10371313;28;2027;-82
2021/06/08 22:58:23;;;;;;;;;;;16.60;99.90;;;15.27;86.75;96091.91;10378477;28;2176;-80
2021/06/08 23:03:25;;;;;;;;;;;16.50;99.90;;;15.27;86.21;96091.06;10368809;28;1961;-80
2021/06/08 23:08:28;;;;;;;;;;;16.40;99.90;;;15.25;86.75;96098.69;10379924;28;2026;-81
2021/06/08 23:13:30;;;;;;;;;;;16.40;99.90;;;15.20;86.35;96091.44;10382894;28;1197;-81